LFKJ 222030Z AUTO 11003KT CAVOK 25/18 Q1015 NOSIG

ElémentsDécodage
LFKJ Station météo située sur l'aérodrome de AJACCIO Campo dell'Oro
222030Z émis le 22 du mois à 20h30 UTC
AUTO Bulletin édité par un automate
11003KT vent du 110°, 03 noeuds
CAVOK Ceiling And Visibility OK
- Visibilité de 10 Km ou plus
- Pas de nuage au-dessous de 1500m ou au-dessous de l'altitude minimale du secteur la plus élevée (si>1500m) et absence de CB
- pas de temps présent significatif
25/18 température 25°C, point de rosée 18°C
 soit une humidité relative de 65%
Q1015 la pression au niveau de la mer (QNH) est de 1015 hPa
NOSIG Pas de changement significatif prévu au cours des deux heures suivant l'heure de l'observation